createdAt,value
2022-11-02T00:01:37.482Z,10.50
2022-11-02T00:04:04.489Z,10.52
2022-11-02T00:06:31.540Z,10.46
2022-11-02T00:08:58.502Z,10.52
2022-11-02T00:11:25.538Z,10.51
2022-11-02T00:13:52.585Z,10.32
2022-11-02T00:16:22.711Z,10.56
2022-11-02T00:18:52.998Z,10.60
2022-11-02T00:21:21.571Z,10.21
2022-11-02T00:23:49.545Z,10.73
2022-11-02T00:26:17.475Z,10.79
2022-11-02T00:28:44.931Z,10.67
2022-11-02T00:31:11.919Z,10.95
2022-11-02T00:33:38.913Z,11.11
2022-11-02T00:36:06.210Z,11.05
2022-11-02T00:38:33.510Z,11.20
2022-11-02T00:41:00.514Z,11.22
2022-11-02T00:43:27.636Z,11.17
2022-11-02T00:45:54.679Z,11.15
2022-11-02T00:48:22.600Z,11.01
2022-11-02T00:50:49.709Z,11.12
2022-11-02T00:53:18.364Z,11.06
2022-11-02T00:55:53.787Z,10.91
2022-11-02T00:58:21.286Z,10.97
2022-11-02T01:00:49.969Z,11.04
2022-11-02T01:03:17.007Z,11.24
2022-11-02T01:05:44.116Z,11.33
2022-11-02T01:08:11.381Z,11.47
2022-11-02T01:10:40.504Z,11.53
2022-11-02T01:13:09.693Z,11.53
2022-11-02T01:15:39.317Z,11.72
2022-11-02T01:18:06.688Z,11.75
2022-11-02T01:20:33.917Z,11.72
2022-11-02T01:23:00.926Z,11.89
2022-11-02T01:25:27.917Z,11.84
2022-11-02T01:27:54.945Z,11.90
2022-11-02T01:30:22.346Z,11.65
2022-11-02T01:32:49.394Z,11.94
2022-11-02T01:35:16.752Z,11.93
2022-11-02T01:37:43.809Z,11.76
2022-11-02T01:40:11.273Z,11.97
2022-11-02T01:42:38.419Z,11.98
2022-11-02T01:45:05.933Z,11.58
2022-11-02T01:47:37.860Z,11.86
2022-11-02T01:50:19.120Z,11.71
2022-11-02T01:52:46.394Z,11.88
2022-11-02T01:55:20.335Z,12.04
2022-11-02T01:57:54.675Z,12.03
2022-11-02T02:00:21.965Z,11.73
2022-11-02T02:02:54.456Z,11.82
2022-11-02T02:05:24.138Z,11.74
2022-11-02T02:07:52.400Z,11.98
2022-11-02T02:10:19.765Z,11.57
2022-11-02T02:12:47.427Z,12.02
2022-11-02T02:15:18.011Z,11.67
2022-11-02T02:17:53.114Z,11.95
2022-11-02T02:20:37.279Z,11.62
2022-11-02T02:23:24.517Z,11.87
2022-11-02T02:26:24.206Z,12.02
2022-11-02T02:28:58.120Z,11.98
2022-11-02T02:32:20.887Z,12.02
2022-11-02T02:34:55.939Z,11.87
2022-11-02T02:37:29.104Z,12.03
2022-11-02T02:40:16.708Z,12.00
2022-11-02T02:42:52.804Z,12.01
2022-11-02T02:45:26.451Z,11.91
2022-11-02T02:48:12.001Z,11.75
2022-11-02T02:50:47.438Z,12.06
2022-11-02T02:53:16.590Z,12.05
2022-11-02T02:55:46.507Z,12.00
2022-11-02T02:58:22.708Z,11.93
2022-11-02T03:00:52.899Z,11.96
2022-11-02T03:03:28.049Z,11.91
2022-11-02T03:06:04.198Z,12.07
2022-11-02T03:08:35.862Z,12.06
2022-11-02T03:11:14.045Z,11.95
2022-11-02T03:13:55.964Z,11.93
2022-11-02T03:16:42.642Z,11.84
2022-11-02T03:19:38.287Z,11.86
2022-11-02T03:22:30.027Z,11.53
2022-11-02T03:25:05.865Z,11.73
2022-11-02T03:27:58.567Z,11.69
2022-11-02T03:30:32.295Z,11.62
2022-11-02T03:33:25.998Z,11.52
2022-11-02T03:36:05.520Z,11.55
2022-11-02T03:38:56.301Z,11.18
2022-11-02T03:41:25.828Z,11.10
2022-11-02T03:43:59.316Z,11.11
2022-11-02T03:46:29.841Z,11.37
2022-11-02T03:48:57.597Z,11.35
2022-11-02T03:51:26.813Z,11.37
2022-11-02T03:54:05.464Z,11.35
2022-11-02T03:56:42.369Z,11.30
2022-11-02T03:59:09.579Z,11.21
2022-11-02T04:01:40.704Z,10.96
2022-11-02T04:04:08.003Z,10.98
2022-11-02T04:06:36.082Z,11.08
2022-11-02T04:09:04.698Z,11.03
2022-11-02T04:11:51.118Z,11.05
2022-11-02T04:14:37.449Z,11.05
2022-11-02T04:17:27.522Z,10.84
2022-11-02T04:19:56.769Z,10.88
2022-11-02T04:22:43.674Z,10.56
2022-11-02T04:25:20.418Z,10.99
2022-11-02T04:27:56.384Z,11.00
2022-11-02T04:30:28.780Z,10.95
2022-11-02T04:33:15.529Z,10.94
2022-11-02T04:35:51.909Z,10.93
2022-11-02T04:38:38.727Z,10.75
2022-11-02T04:41:29.176Z,10.94
2022-11-02T04:43:56.451Z,10.98
2022-11-02T04:46:26.593Z,10.93
2022-11-02T04:48:54.072Z,10.95
2022-11-02T04:51:22.817Z,10.92
2022-11-02T04:53:52.761Z,10.86
2022-11-02T04:56:20.533Z,10.86
2022-11-02T04:58:55.617Z,10.90
2022-11-02T05:01:25.750Z,10.84
2022-11-02T05:03:54.427Z,10.71
2022-11-02T05:06:24.527Z,10.85
2022-11-02T05:08:52.925Z,10.89
2022-11-02T05:11:20.268Z,10.78
2022-11-02T05:13:49.432Z,10.60
2022-11-02T05:16:18.036Z,10.54
2022-11-02T05:18:46.120Z,10.73
2022-11-02T05:21:15.100Z,10.28
2022-11-02T05:23:42.106Z,10.65
2022-11-02T05:26:12.174Z,10.36
2022-11-02T05:28:42.985Z,10.56
2022-11-02T05:31:10.116Z,10.63
2022-11-02T05:33:37.234Z,10.48
2022-11-02T05:36:11.429Z,10.58
2022-11-02T05:38:41.052Z,10.49
2022-11-02T05:41:09.036Z,10.67
2022-11-02T05:43:38.686Z,10.71
2022-11-02T05:46:07.736Z,10.76
2022-11-02T05:48:34.813Z,10.80
2022-11-02T05:51:04.155Z,10.76
2022-11-02T05:53:33.825Z,10.69
2022-11-02T05:56:01.978Z,10.57
2022-11-02T05:58:29.461Z,10.70
2022-11-02T06:01:04.546Z,10.69
2022-11-02T06:03:32.357Z,10.69
2022-11-02T06:06:01.950Z,10.63
2022-11-02T06:08:35.721Z,10.73
2022-11-02T06:11:09.856Z,10.86
2022-11-02T06:13:37.167Z,10.94
2022-11-02T06:16:06.326Z,10.78
2022-11-02T06:18:33.398Z,10.91
2022-11-02T06:21:00.734Z,10.48
2022-11-02T06:23:28.628Z,10.81
2022-11-02T06:25:59.616Z,10.77
2022-11-02T06:28:27.257Z,10.62
2022-11-02T06:30:54.948Z,10.53
2022-11-02T06:33:22.942Z,10.72
2022-11-02T06:35:56.909Z,10.74
2022-11-02T06:38:24.181Z,10.58
2022-11-02T06:40:56.100Z,10.73
2022-11-02T06:43:23.739Z,10.56
2022-11-02T06:45:54.707Z,10.65
2022-11-02T06:48:21.966Z,10.73
2022-11-02T06:50:48.960Z,10.74
2022-11-02T06:53:16.183Z,10.61
2022-11-02T06:55:43.237Z,10.76
2022-11-02T06:58:10.715Z,10.70
2022-11-02T07:00:37.857Z,10.75
2022-11-02T07:03:07.901Z,10.66
2022-11-02T07:05:36.284Z,11.00
2022-11-02T07:08:04.115Z,11.09
2022-11-02T07:10:31.470Z,11.29
2022-11-02T07:12:58.794Z,11.47
2022-11-02T07:15:26.472Z,10.94
2022-11-02T07:17:54.174Z,11.55
2022-11-02T07:20:21.680Z,11.51
2022-11-02T07:22:56.073Z,11.40
2022-11-02T07:25:23.183Z,11.23
2022-11-02T07:27:50.294Z,11.16
2022-11-02T07:30:17.347Z,11.25
2022-11-02T07:32:45.767Z,11.02
2022-11-02T07:35:14.848Z,11.20
2022-11-02T07:37:42.600Z,11.17
2022-11-02T07:40:11.809Z,11.26
2022-11-02T07:42:48.820Z,11.25
2022-11-02T07:45:19.093Z,10.84
2022-11-02T07:47:46.910Z,11.54
2022-11-02T07:50:15.263Z,11.70
2022-11-02T07:52:53.804Z,12.08
2022-11-02T07:55:24.257Z,11.89
2022-11-02T07:57:59.609Z,11.48
2022-11-02T08:00:29.589Z,11.89
2022-11-02T08:02:58.160Z,11.97
2022-11-02T08:05:26.416Z,12.04
2022-11-02T08:08:20.185Z,12.21
2022-11-02T08:10:49.173Z,12.29
2022-11-02T08:13:19.187Z,12.12
2022-11-02T08:15:52.879Z,11.65
2022-11-02T08:18:25.256Z,12.22
2022-11-02T08:20:56.365Z,12.23
2022-11-02T08:23:24.438Z,12.30
2022-11-02T08:25:52.797Z,12.23
2022-11-02T08:28:28.815Z,12.23
2022-11-02T08:30:57.304Z,12.77
2022-11-02T08:33:24.675Z,12.74
2022-11-02T08:35:53.090Z,12.66
2022-11-02T08:38:22.636Z,12.84
2022-11-02T08:40:49.798Z,12.59
2022-11-02T08:43:16.821Z,13.03
2022-11-02T08:48:32.954Z,13.24
2022-11-02T08:51:00.035Z,13.20
2022-11-02T08:53:27.131Z,13.19
2022-11-02T08:55:57.963Z,13.28
2022-11-02T08:58:25.027Z,13.31
2022-11-02T09:00:55.781Z,13.49
2022-11-02T09:03:26.862Z,13.30
2022-11-02T09:05:59.782Z,13.67
2022-11-02T09:08:27.842Z,13.88
2022-11-02T09:10:59.938Z,13.75
2022-11-02T09:13:27.816Z,13.75
2022-11-02T09:15:56.922Z,13.65
2022-11-02T09:18:24.421Z,13.09
2022-11-02T09:20:51.711Z,13.59
2022-11-02T09:23:20.512Z,13.48
2022-11-02T09:25:48.367Z,13.11
2022-11-02T09:28:15.845Z,13.29
2022-11-02T09:30:43.297Z,13.20
2022-11-02T09:33:10.854Z,12.72
2022-11-02T09:35:41.154Z,13.19
2022-11-02T09:38:08.231Z,13.22
2022-11-02T09:41:13.748Z,13.20
2022-11-02T09:43:43.606Z,13.23
2022-11-02T09:46:20.563Z,13.12
2022-11-02T09:49:02.573Z,13.03
2022-11-02T09:51:37.288Z,13.08
2022-11-02T09:54:14.768Z,12.90
2022-11-02T09:56:45.141Z,13.00
2022-11-02T09:59:20.003Z,13.03
2022-11-02T10:01:57.743Z,13.16
2022-11-02T10:05:06.794Z,13.06
2022-11-02T10:07:56.757Z,13.00
2022-11-02T10:10:44.910Z,13.21
2022-11-02T10:13:29.192Z,12.90
2022-11-02T10:16:02.106Z,12.44
2022-11-02T10:18:30.250Z,12.77
2022-11-02T10:21:06.497Z,12.76
2022-11-02T10:23:53.878Z,13.07
2022-11-02T10:26:29.373Z,12.79
2022-11-02T10:29:00.650Z,13.23
2022-11-02T10:31:32.577Z,13.04
2022-11-02T10:34:13.971Z,12.96
2022-11-02T10:37:23.137Z,12.99
2022-11-02T10:40:05.620Z,13.12
2022-11-02T10:42:51.694Z,13.06
2022-11-02T10:45:45.129Z,13.24
2022-11-02T10:48:32.503Z,13.47
2022-11-02T10:51:09.476Z,13.61
2022-11-02T10:53:42.143Z,13.57
2022-11-02T10:56:33.070Z,13.57
2022-11-02T10:59:00.758Z,13.58
2022-11-02T11:01:30.252Z,13.53
2022-11-02T11:04:21.250Z,13.63
2022-11-02T11:06:48.473Z,13.73
2022-11-02T11:09:30.507Z,13.89
2022-11-02T11:12:20.626Z,14.13
2022-11-02T11:20:37.217Z,14.54
2022-11-02T11:23:23.194Z,14.55
2022-11-02T11:25:58.401Z,14.66
2022-11-02T11:28:30.077Z,14.75
2022-11-02T11:31:15.666Z,14.80
2022-11-02T11:33:53.209Z,15.31
2022-11-02T11:36:30.297Z,15.45
2022-11-02T11:39:05.006Z,15.40
2022-11-02T11:41:34.303Z,15.35
2022-11-02T11:44:02.421Z,14.59
2022-11-02T11:46:41.917Z,14.67
2022-11-02T11:49:48.091Z,13.95
2022-11-02T11:52:31.939Z,13.78
2022-11-02T11:55:20.273Z,13.87
2022-11-02T11:58:03.963Z,13.73
2022-11-02T12:00:31.449Z,13.51
2022-11-02T12:03:06.212Z,13.63
2022-11-02T12:05:47.434Z,13.46
2022-11-02T12:08:40.641Z,13.50
2022-11-02T12:11:36.381Z,13.48
2022-11-02T12:14:18.804Z,13.46
2022-11-02T12:16:59.823Z,13.29
2022-11-02T12:19:49.847Z,13.62
2022-11-02T12:22:49.897Z,13.72
2022-11-02T12:25:22.345Z,13.67
2022-11-02T12:28:03.348Z,13.43
2022-11-02T12:30:47.642Z,13.97
2022-11-02T12:33:43.965Z,14.15
2022-11-02T12:36:35.349Z,14.19
2022-11-02T12:39:15.508Z,14.37
2022-11-02T12:41:55.801Z,14.37
2022-11-02T12:44:37.701Z,14.24
2022-11-02T12:47:24.293Z,14.26
2022-11-02T12:50:09.940Z,14.54
2022-11-02T12:52:58.120Z,14.51
2022-11-02T12:55:35.709Z,14.29
2022-11-02T12:58:12.222Z,14.66
2022-11-02T13:00:43.458Z,14.62
2022-11-02T13:03:23.714Z,14.83
2022-11-02T13:05:57.501Z,15.00
2022-11-02T13:08:38.970Z,14.99
2022-11-02T13:11:14.557Z,15.05
2022-11-02T13:13:57.293Z,14.98
2022-11-02T13:16:37.178Z,15.05
2022-11-02T13:19:05.485Z,15.08
2022-11-02T13:21:42.881Z,14.71
2022-11-02T13:24:18.504Z,14.62
2022-11-02T13:26:57.120Z,14.86
2022-11-02T13:29:42.659Z,14.77
2022-11-02T13:32:20.042Z,14.97
2022-11-02T13:34:50.121Z,15.03
2022-11-02T13:37:25.467Z,15.00
2022-11-02T13:39:56.653Z,14.92
2022-11-02T13:42:51.596Z,14.78
2022-11-02T13:45:40.962Z,14.73
2022-11-02T13:48:52.766Z,14.64
2022-11-02T13:51:34.924Z,14.45
2022-11-02T13:54:15.173Z,14.32
2022-11-02T13:56:42.642Z,14.23
2022-11-02T13:59:21.525Z,14.14
2022-11-02T14:01:51.451Z,14.08
2022-11-02T14:04:19.934Z,14.28
2022-11-02T14:06:52.800Z,14.38
2022-11-02T14:09:28.128Z,14.07
2022-11-02T14:12:21.001Z,14.02
2022-11-02T14:15:12.622Z,14.21
2022-11-02T14:17:55.210Z,14.09
2022-11-02T14:20:34.603Z,14.04
2022-11-02T14:23:34.146Z,14.00
2022-11-02T14:26:01.237Z,13.89
2022-11-02T14:28:33.985Z,13.82
2022-11-02T14:31:03.989Z,13.83
2022-11-02T14:33:39.857Z,13.82
2022-11-02T14:36:22.367Z,13.78
2022-11-02T14:42:12.498Z,13.84
2022-11-02T14:45:07.161Z,13.81
2022-11-02T14:47:37.915Z,13.72
2022-11-02T14:50:10.984Z,13.90
2022-11-02T14:52:40.236Z,13.55
2022-11-02T14:55:24.538Z,13.90
2022-11-02T14:58:10.975Z,13.77
2022-11-02T15:00:55.751Z,13.76
2022-11-02T15:03:25.621Z,13.64
2022-11-02T15:06:11.743Z,13.22
2022-11-02T15:08:41.930Z,13.63
2022-11-02T15:11:45.897Z,13.67
2022-11-02T15:14:36.203Z,13.60
2022-11-02T15:17:26.357Z,13.16
2022-11-02T15:20:15.935Z,13.42
2022-11-02T15:22:48.306Z,13.38
2022-11-02T15:25:25.056Z,12.85
2022-11-02T15:27:56.557Z,13.28
2022-11-02T15:30:28.275Z,13.01
2022-11-02T15:33:02.040Z,12.93
2022-11-02T15:35:51.442Z,13.12
2022-11-02T15:38:25.813Z,13.03
2022-11-02T15:41:16.027Z,12.94
2022-11-02T15:44:19.289Z,12.89
2022-11-02T15:47:02.648Z,12.81
2022-11-02T15:49:44.853Z,12.79
2022-11-02T15:52:11.841Z,12.65
2022-11-02T15:55:00.369Z,12.57
2022-11-02T15:57:43.519Z,12.22
2022-11-02T16:00:15.629Z,12.28
2022-11-02T16:02:46.945Z,12.21
2022-11-02T16:05:21.648Z,12.16
2022-11-02T16:08:09.923Z,12.10
2022-11-02T16:10:37.946Z,12.03
2022-11-02T16:13:08.010Z,12.03
2022-11-02T16:15:35.114Z,12.00
2022-11-02T16:18:02.272Z,11.72
2022-11-02T16:20:34.440Z,11.50
2022-11-02T16:23:06.188Z,11.73
2022-11-02T16:25:44.741Z,11.73
2022-11-02T16:28:25.552Z,11.69
2022-11-02T16:31:15.626Z,11.59
2022-11-02T16:33:56.993Z,11.45
2022-11-02T16:36:27.176Z,11.47
2022-11-02T16:38:59.162Z,11.40
2022-11-02T16:41:31.845Z,11.39
2022-11-02T16:44:00.908Z,11.38
2022-11-02T16:46:41.746Z,11.20
2022-11-02T16:49:15.058Z,11.28
2022-11-02T16:51:49.676Z,11.28
2022-11-02T16:54:34.801Z,11.28
2022-11-02T16:57:11.551Z,11.28
2022-11-02T16:59:56.847Z,11.30
2022-11-02T17:02:43.348Z,11.30
2022-11-02T17:05:19.358Z,11.19
2022-11-02T17:08:04.880Z,11.17
2022-11-02T17:10:34.064Z,11.26
2022-11-02T17:13:02.229Z,10.96
2022-11-02T17:15:34.105Z,10.81
2022-11-02T17:18:07.451Z,11.14
2022-11-02T17:20:36.344Z,10.74
2022-11-02T17:23:06.847Z,10.95
2022-11-02T17:25:39.138Z,10.97
2022-11-02T17:28:34.370Z,10.90
2022-11-02T17:31:02.527Z,10.80
2022-11-02T17:33:31.405Z,10.71
2022-11-02T17:36:07.453Z,10.50
2022-11-02T17:38:35.255Z,10.57
2022-11-02T17:41:23.080Z,10.55
2022-11-02T17:43:50.121Z,10.39
2022-11-02T17:46:17.211Z,10.41
2022-11-02T17:48:44.226Z,10.34
2022-11-02T17:51:12.477Z,10.18
2022-11-02T17:53:39.464Z,10.07
2022-11-02T17:56:06.726Z,9.97
2022-11-02T17:58:33.796Z,9.82
2022-11-02T18:01:02.869Z,9.68
2022-11-02T18:03:31.548Z,9.41
2022-11-02T18:06:00.246Z,9.74
2022-11-02T18:08:27.934Z,9.29
2022-11-02T18:10:55.481Z,9.44
2022-11-02T18:13:23.937Z,9.44
2022-11-02T18:15:51.021Z,9.50
2022-11-02T18:18:18.062Z,9.40
2022-11-02T18:20:45.099Z,9.35
2022-11-02T18:23:19.716Z,9.28
2022-11-02T18:25:47.132Z,8.74
2022-11-02T18:28:14.294Z,9.12
2022-11-02T18:30:43.226Z,8.93
2022-11-02T18:33:13.768Z,9.06
2022-11-02T18:35:42.287Z,8.97
2022-11-02T18:38:09.637Z,9.01
2022-11-02T18:40:37.533Z,8.98
2022-11-02T18:43:04.928Z,9.00
2022-11-02T18:45:32.434Z,8.63
2022-11-02T18:47:59.508Z,8.80
2022-11-02T18:50:26.543Z,8.79
2022-11-02T18:52:53.638Z,8.71
2022-11-02T18:55:20.690Z,8.50
2022-11-02T18:57:50.724Z,8.31
2022-11-02T19:00:18.021Z,8.49
2022-11-02T19:02:45.411Z,8.48
2022-11-02T19:05:31.097Z,8.34
2022-11-02T19:08:19.932Z,8.19
2022-11-02T19:10:47.931Z,8.02
2022-11-02T19:13:15.057Z,8.09
2022-11-02T19:15:42.882Z,8.00
2022-11-02T19:18:10.397Z,7.83
2022-11-02T19:20:37.460Z,7.83
2022-11-02T19:23:04.657Z,7.79
2022-11-02T19:25:31.775Z,7.73
2022-11-02T19:27:59.005Z,7.72
2022-11-02T19:30:26.161Z,7.55
2022-11-02T19:32:53.200Z,7.58
2022-11-02T19:35:20.232Z,7.58
2022-11-02T19:37:47.225Z,7.35
2022-11-02T19:40:14.576Z,7.32
2022-11-02T19:42:41.599Z,7.43
2022-11-02T19:45:16.387Z,7.35
2022-11-02T19:47:44.146Z,7.32
2022-11-02T19:50:11.614Z,7.04
2022-11-02T19:52:39.186Z,7.09
2022-11-02T19:55:06.535Z,7.27
2022-11-02T19:57:33.653Z,7.37
2022-11-02T20:00:00.737Z,7.37
2022-11-02T20:02:27.946Z,7.26
2022-11-02T20:04:55.079Z,7.25
2022-11-02T20:07:22.161Z,7.08
2022-11-02T20:09:49.212Z,7.30
2022-11-02T20:12:16.328Z,7.28
2022-11-02T20:14:43.379Z,7.22
2022-11-02T20:17:30.206Z,7.17
2022-11-02T20:19:57.477Z,7.00
2022-11-02T20:22:24.634Z,7.27
2022-11-02T20:24:51.605Z,7.22
2022-11-02T20:27:18.625Z,7.22
2022-11-02T20:29:46.293Z,7.10
2022-11-02T20:32:13.466Z,6.98
2022-11-02T20:34:40.535Z,7.03
2022-11-02T20:37:07.678Z,6.86
2022-11-02T20:39:35.357Z,7.06
2022-11-02T20:42:02.492Z,6.99
2022-11-02T20:44:29.469Z,6.95
2022-11-02T20:46:56.491Z,6.60
2022-11-02T20:49:48.888Z,6.69
2022-11-02T20:52:10.687Z,6.61
2022-11-02T20:54:37.736Z,6.83
2022-11-02T20:57:05.295Z,6.71
2022-11-02T20:59:35.086Z,6.18
2022-11-02T21:02:02.223Z,6.62
2022-11-02T21:04:29.373Z,6.73
2022-11-02T21:06:57.686Z,6.71
2022-11-02T21:09:25.493Z,6.63
2022-11-02T21:12:10.950Z,6.66
2022-11-02T21:14:37.957Z,6.62
2022-11-02T21:17:06.055Z,6.34
2022-11-02T21:19:33.050Z,6.53
2022-11-02T21:22:00.699Z,6.51
2022-11-02T21:24:28.753Z,6.40
2022-11-02T21:26:55.949Z,6.39
2022-11-02T21:29:23.511Z,6.20
2022-11-02T21:31:50.642Z,6.53
2022-11-02T21:34:17.684Z,6.64
2022-11-02T21:36:47.524Z,6.65
2022-11-02T21:39:14.516Z,6.85
2022-11-02T21:41:41.573Z,6.69
2022-11-02T21:44:08.967Z,6.71
2022-11-02T21:46:36.021Z,6.79
2022-11-02T21:49:03.199Z,6.64
2022-11-02T21:51:31.168Z,6.72
2022-11-02T21:53:58.677Z,6.66
2022-11-02T21:56:27.848Z,6.66
2022-11-02T21:58:55.789Z,6.84
2022-11-02T22:01:44.729Z,6.82
2022-11-02T22:04:19.642Z,6.54
2022-11-02T22:06:50.494Z,6.80
2022-11-02T22:09:18.407Z,7.01
2022-11-02T22:11:45.489Z,6.73
2022-11-02T22:14:12.790Z,6.68
2022-11-02T22:16:41.909Z,7.03
2022-11-02T22:19:13.938Z,7.01
2022-11-02T22:21:43.276Z,7.00
2022-11-02T22:24:10.806Z,6.96
2022-11-02T22:26:39.439Z,7.06
2022-11-02T22:29:06.954Z,7.04
2022-11-02T22:31:37.306Z,6.97
2022-11-02T22:34:06.439Z,7.04
2022-11-02T22:36:34.693Z,7.03
2022-11-02T22:39:04.229Z,6.98
2022-11-02T22:41:33.685Z,7.00
2022-11-02T22:44:06.810Z,7.06
2022-11-02T22:46:37.574Z,7.16
2022-11-02T22:49:05.854Z,7.19
2022-11-02T22:51:38.894Z,7.23
2022-11-02T22:54:08.357Z,7.30
2022-11-02T22:56:35.968Z,7.37
2022-11-02T22:59:04.047Z,7.32
2022-11-02T23:01:32.030Z,7.49
2022-11-02T23:03:59.163Z,7.48
2022-11-02T23:06:26.306Z,7.65
2022-11-02T23:08:55.799Z,7.72
2022-11-02T23:11:27.133Z,7.54
2022-11-02T23:13:58.441Z,7.81
2022-11-02T23:16:28.493Z,7.79
2022-11-02T23:19:27.247Z,7.91
2022-11-02T23:22:25.820Z,7.98
2022-11-02T23:25:12.419Z,8.15
2022-11-02T23:28:15.905Z,8.11
2022-11-02T23:31:02.078Z,7.74
2022-11-02T23:33:32.088Z,8.11
2022-11-02T23:36:12.822Z,8.23
2022-11-02T23:39:00.956Z,8.04
2022-11-02T23:41:30.381Z,8.21
2022-11-02T23:44:14.372Z,8.27
2022-11-02T23:46:43.372Z,8.29
2022-11-02T23:49:11.440Z,8.27
2022-11-02T23:51:57.500Z,8.40
2022-11-02T23:54:43.242Z,8.27
2022-11-02T23:57:10.328Z,8.13
2022-11-02T23:59:37.328Z,7.98
